KGRK/GRK METAR and TAF weather

Enter ICAO airport designator
Station Type Date Time Source
KGRK METAR 2021/09/25 11:56 UTC NOAA

KGRK 251156Z AUTO 18005KT 10SM CLR 18/13 A3010 RMK AO2 SLP185 T01800131 10195 20151 53009


Station Type Date Time Source
KGRK Decoded METAR 2021/09/25 11:56 UTC NOAA

Fort Hood, Robert Gray AAF Ft Hood, TX, United States (KGRK) 31-04N 097-49W
Sep 25, 2021 - 07:56 AM EDT / 2021.09.25 1156 UTC
Wind: from the S (180 degrees) at 6 MPH (5 KT):0
Visibility: 10 mile(s):0
Sky conditions: clear
Temperature: 64.4 F (18.0 C)
Dew Point: 55.6 F (13.1 C)
Relative Humidity: 73%
Pressure (altimeter): 30.1 in. Hg (1019 hPa)
Pressure tendency: 0.03 inches (0.9 hPa) higher than three hours ago
ob: KGRK 251156Z AUTO 18005KT 10SM CLR 18/13 A3010 RMK AO2 SLP185 T01800131 10195 20151 53009
cycle: 12

Station Type Date Time Source
KGRK TAF 2021/09/25 08:10 UTC NOAA

TAF KGRK 250800Z 2508/2614 VRB06KT 9999 SKC QNH3005INS TX29/2521Z TN15/2512Z

Example: see airport list